x

Southwest Pass, La (burl1) Weather Station

9:00am - Wed 24th May 2017 All times are CDT. -5 hours from GMT.

  • Wind
    20mph, 21mph gusts
  • Air Temp 73°f
  • Sea Pressure 1005.5mb
  • Southwest Pass, La
  • Southwest Pass, La

More Historic Weather Station data

Upgrade to MSW Pro to gain access to the past 30 days of data for over 8000 Wavebouys and Weather Stations around the globe.

Join Pro

Comparision Forecast

View Surf forecast
   
Wed 05/24 9:00am 20 21 mph 1005.5mb 73f
8:00am 24 26 mph 1004.5mb 74f
7:00am 18 20 mph 1004mb 76f
6:00am 16 17 mph 1004.1mb 76f
5:00am 16 17 mph 1004.4mb 76f
4:00am 14 16 mph 1004mb 76f
3:00am 20 20 mph 1006.5mb 76f
2:00am 18 20 mph 1007.2mb 76f
1:00am 10 10 mph 1007.3mb 76f
12:00am 9 9 mph 1007.9mb 76f
Tue 05/23 11:00pm 10 10 mph 1008.3mb 75f
10:00pm 10 11 mph 1007.5mb 76f
9:00pm 9 9 mph 1006.6mb 76f
8:00pm 14 15 mph 1006.6mb 77f
7:00pm 18 20 mph 1006.4mb 77f
6:00pm 18 21 mph 1007.2mb 76f
5:00pm 18 20 mph 1007.5mb 76f
4:00pm 15 16 mph 1007.7mb 76f
3:00pm 16 17 mph 1008.1mb 76f
2:00pm 22 22 mph 1008.7mb 76f
1:00pm 15 16 mph 1009.5mb 75f
12:00pm 24 28 mph 1009.4mb 74f
11:00am 28 29 mph 1009.7mb 75f
10:00am 33 36 mph 1009.3mb 75f
9:00am 31 34 mph 1009mb 75f
8:00am 29 33 mph 1009.1mb 76f
7:00am 31 37 mph 1009.2mb 77f
6:00am 32 38 mph 1007.5mb 76f
5:00am 32 36 mph 1008.7mb 77f
4:00am 34 37 mph 1008.6mb 76f
3:00am 30 32 mph 1010mb 76f
2:00am 24 26 mph 1010.9mb 77f
1:00am 22 23 mph 1011.2mb 77f
12:00am 11 13 mph 1013.1mb 77f
Mon 05/22 11:00pm 13 14 mph 1012.9mb 77f
10:00pm 11 11 mph 1013.5mb 77f
9:00pm 14 15 mph 1013.2mb 77f
8:00pm 14 15 mph 1013mb 77f
7:00pm 11 11 mph 1013.1mb 77f
6:00pm 11 11 mph 1013.2mb 77f
5:00pm 8 9 mph 1014.2mb 77f
4:00pm 6 7 mph 1014.8mb 78f
3:00pm 2 2 mph 1015.4mb 78f
2:00pm 6 6 mph 1016.1mb 78f
1:00pm 2 3 mph 1016.2mb 78f
12:00pm 5 6 mph 1017mb 77f
11:00am 8 8 mph 1017mb 76f
10:00am 13 13 mph 1016.8mb 75f
9:00am 9 10 mph 1017.2mb 75f
8:00am 6 7 mph 1017.6mb 73f
7:00am 9 9 mph 1018mb 75f
6:00am 10 10 mph 1017.7mb 75f
5:00am 11 13 mph 1016.9mb 76f
4:00am  -  1 mph 1016mb 77f
3:00am 6 7 mph 1015.2mb 77f
2:00am 5 5 mph 1016mb 74f
1:00am 2 2 mph 1018.1mb 75f
12:00am 29 30 mph 1019.3mb 74f
Sun 05/21 11:00pm 30 33 mph 1020mb 74f
10:00pm 23 24 mph 1019.8mb 72f
9:00pm 15 15 mph 1018.5mb 74f
8:00pm 10 11 mph 1018.4mb 75f
7:00pm 22 24 mph 1016.7mb 74f
6:00pm 20 20 mph 1016.9mb 72f
5:00pm 23 25 mph 1017.8mb 72f
4:00pm 29 31 mph 1018mb 73f
3:00pm 17 20 mph 1018.9mb 71f
2:00pm 15 18 mph 1018.8mb 76f
1:00pm 24 25 mph 1018.5mb 76f
12:00pm 26 29 mph 1018.6mb 76f
11:00am 31 32 mph 1018.8mb 75f
10:00am 25 30 mph 1018.2mb 76f
9:00am 9 9 mph 1018.5mb 78f
8:00am 3 3 mph 1018.1mb 78f
7:00am 5 5 mph 1017.6mb 78f
6:00am 8 8 mph 1016.8mb 78f
5:00am 10 10 mph 1016.2mb 77f
4:00am 13 14 mph 1015.9mb 78f
3:00am 14 15 mph 1015.9mb 77f
2:00am 11 11 mph 1016mb 77f
1:00am 11 11 mph 1016.3mb 78f
12:00am 14 15 mph 1016.3mb 79f
Sat 05/20 11:00pm 13 14 mph 1016.2mb 79f
10:00pm 10 10 mph 1016.1mb 79f
9:00pm 14 15 mph 1015mb 79f
8:00pm 18 20 mph 1014.3mb 79f
7:00pm 17 18 mph 1013.8mb 80f
6:00pm 15 16 mph 1013.3mb 80f
5:00pm 16 17 mph 1013.6mb 80f
4:00pm 13 14 mph 1013.8mb 80f